sensor_id;sensor_type;location;lat;lon;timestamp;temperature;humidity
1137;DHT22;557;48.466;7.950;2022-07-29T00:00:42;21.60;99.90
1137;DHT22;557;48.466;7.950;2022-07-29T00:03:28;21.60;99.90
1137;DHT22;557;48.466;7.950;2022-07-29T00:06:14;21.60;99.90
1137;DHT22;557;48.466;7.950;2022-07-29T00:08:59;21.60;99.90
1137;DHT22;557;48.466;7.950;2022-07-29T00:11:46;21.60;99.90
1137;DHT22;557;48.466;7.950;2022-07-29T00:14:33;21.70;99.90
1137;DHT22;557;48.466;7.950;2022-07-29T00:17:19;21.70;99.90
1137;DHT22;557;48.466;7.950;2022-07-29T00:20:07;21.70;99.90
1137;DHT22;557;48.466;7.950;2022-07-29T00:22:53;21.60;1.00
1137;DHT22;557;48.466;7.950;2022-07-29T00:25:39;21.50;1.00
1137;DHT22;557;48.466;7.950;2022-07-29T00:28:26;21.40;1.00
1137;DHT22;557;48.466;7.950;2022-07-29T00:31:12;21.30;1.00
1137;DHT22;557;48.466;7.950;2022-07-29T00:33:58;21.30;1.00
1137;DHT22;557;48.466;7.950;2022-07-29T00:36:43;21.20;1.00
1137;DHT22;557;48.466;7.950;2022-07-29T00:39:28;21.20;1.00
1137;DHT22;557;48.466;7.950;2022-07-29T00:42:14;21.20;1.00
1137;DHT22;557;48.466;7.950;2022-07-29T00:45:02;21.20;1.00
1137;DHT22;557;48.466;7.950;2022-07-29T00:47:49;21.20;1.00
1137;DHT22;557;48.466;7.950;2022-07-29T00:50:35;21.20;1.00
1137;DHT22;557;48.466;7.950;2022-07-29T00:53:21;21.20;1.00
1137;DHT22;557;48.466;7.950;2022-07-29T00:56:07;21.20;1.00
1137;DHT22;557;48.466;7.950;2022-07-29T00:58:53;21.10;1.00
1137;DHT22;557;48.466;7.950;2022-07-29T01:01:41;21.00;1.00
1137;DHT22;557;48.466;7.950;2022-07-29T01:04:27;21.00;1.00
1137;DHT22;557;48.466;7.950;2022-07-29T01:07:13;20.90;1.00
1137;DHT22;557;48.466;7.950;2022-07-29T01:10:01;20.90;1.00
1137;DHT22;557;48.466;7.950;2022-07-29T01:12:50;20.90;1.00
1137;DHT22;557;48.466;7.950;2022-07-29T01:15:43;20.90;1.00
1137;DHT22;557;48.466;7.950;2022-07-29T01:18:33;20.90;1.00
1137;DHT22;557;48.466;7.950;2022-07-29T01:21:46;20.80;1.00
1137;DHT22;557;48.466;7.950;2022-07-29T01:24:54;20.80;1.00
1137;DHT22;557;48.466;7.950;2022-07-29T01:27:51;20.70;1.00
1137;DHT22;557;48.466;7.950;2022-07-29T01:30:42;20.70;1.00
1137;DHT22;557;48.466;7.950;2022-07-29T01:33:33;20.60;1.00
1137;DHT22;557;48.466;7.950;2022-07-29T01:36:37;20.50;1.00
1137;DHT22;557;48.466;7.950;2022-07-29T01:39:29;20.50;1.00
1137;DHT22;557;48.466;7.950;2022-07-29T01:42:20;20.40;1.00
1137;DHT22;557;48.466;7.950;2022-07-29T01:45:14;20.40;1.00
1137;DHT22;557;48.466;7.950;2022-07-29T01:48:05;20.30;1.00
1137;DHT22;557;48.466;7.950;2022-07-29T01:50:56;20.30;1.00
1137;DHT22;557;48.466;7.950;2022-07-29T01:53:50;20.30;1.00
1137;DHT22;557;48.466;7.950;2022-07-29T01:56:37;20.30;1.00
1137;DHT22;557;48.466;7.950;2022-07-29T01:59:23;20.30;1.00
1137;DHT22;557;48.466;7.950;2022-07-29T02:02:11;20.30;1.00
1137;DHT22;557;48.466;7.950;2022-07-29T02:05:00;20.30;1.00
1137;DHT22;557;48.466;7.950;2022-07-29T02:07:47;20.30;1.00
1137;DHT22;557;48.466;7.950;2022-07-29T02:10:34;20.20;1.00
1137;DHT22;557;48.466;7.950;2022-07-29T02:13:22;20.20;1.00
1137;DHT22;557;48.466;7.950;2022-07-29T02:16:09;20.20;1.00
1137;DHT22;557;48.466;7.950;2022-07-29T02:18:56;20.20;1.00
1137;DHT22;557;48.466;7.950;2022-07-29T02:21:45;20.20;1.00
1137;DHT22;557;48.466;7.950;2022-07-29T02:24:33;20.10;1.00
1137;DHT22;557;48.466;7.950;2022-07-29T02:27:20;20.00;1.00
1137;DHT22;557;48.466;7.950;2022-07-29T02:30:07;20.00;6.30
1137;DHT22;557;48.466;7.950;2022-07-29T02:32:55;20.00;9.90
1137;DHT22;557;48.466;7.950;2022-07-29T02:35:43;19.90;14.40
1137;DHT22;557;48.466;7.950;2022-07-29T02:38:32;19.90;14.40
1137;DHT22;557;48.466;7.950;2022-07-29T02:41:40;19.90;14.80
1137;DHT22;557;48.466;7.950;2022-07-29T02:44:27;19.80;13.60
1137;DHT22;557;48.466;7.950;2022-07-29T02:47:17;19.80;18.00
1137;DHT22;557;48.466;7.950;2022-07-29T02:50:06;19.80;22.70
1137;DHT22;557;48.466;7.950;2022-07-29T02:52:57;19.80;26.10
1137;DHT22;557;48.466;7.950;2022-07-29T02:55:48;19.70;27.30
1137;DHT22;557;48.466;7.950;2022-07-29T02:58:40;19.70;27.20
1137;DHT22;557;48.466;7.950;2022-07-29T03:01:30;19.70;29.10
1137;DHT22;557;48.466;7.950;2022-07-29T03:04:18;19.70;34.90
1137;DHT22;557;48.466;7.950;2022-07-29T03:07:05;19.60;27.70
1137;DHT22;557;48.466;7.950;2022-07-29T03:09:51;19.70;27.30
1137;DHT22;557;48.466;7.950;2022-07-29T03:12:40;19.70;24.10
1137;DHT22;557;48.466;7.950;2022-07-29T03:15:26;19.70;22.80
1137;DHT22;557;48.466;7.950;2022-07-29T03:18:12;19.70;17.90
1137;DHT22;557;48.466;7.950;2022-07-29T03:20:58;19.70;15.20
1137;DHT22;557;48.466;7.950;2022-07-29T03:23:44;19.70;15.20
1137;DHT22;557;48.466;7.950;2022-07-29T03:26:30;19.70;17.20
1137;DHT22;557;48.466;7.950;2022-07-29T03:29:17;19.70;20.40
1137;DHT22;557;48.466;7.950;2022-07-29T03:32:04;19.70;20.40
1137;DHT22;557;48.466;7.950;2022-07-29T03:34:50;19.60;23.80
1137;DHT22;557;48.466;7.950;2022-07-29T03:37:36;19.50;34.70
1137;DHT22;557;48.466;7.950;2022-07-29T03:40:26;19.50;37.00
1137;DHT22;557;48.466;7.950;2022-07-29T03:43:14;19.40;41.90
1137;DHT22;557;48.466;7.950;2022-07-29T03:46:05;19.40;46.20
1137;DHT22;557;48.466;7.950;2022-07-29T03:48:56;19.40;51.00
1137;DHT22;557;48.466;7.950;2022-07-29T03:51:44;19.40;46.90
1137;DHT22;557;48.466;7.950;2022-07-29T03:54:29;19.40;49.00
1137;DHT22;557;48.466;7.950;2022-07-29T03:57:16;19.40;50.10
1137;DHT22;557;48.466;7.950;2022-07-29T04:00:05;19.30;49.40
1137;DHT22;557;48.466;7.950;2022-07-29T04:02:53;19.30;50.00
1137;DHT22;557;48.466;7.950;2022-07-29T04:05:39;19.30;47.40
1137;DHT22;557;48.466;7.950;2022-07-29T04:08:24;19.40;45.40
1137;DHT22;557;48.466;7.950;2022-07-29T04:11:10;19.40;44.40
1137;DHT22;557;48.466;7.950;2022-07-29T04:13:55;19.40;44.30
1137;DHT22;557;48.466;7.950;2022-07-29T04:16:41;19.40;45.70
1137;DHT22;557;48.466;7.950;2022-07-29T04:19:28;19.40;44.50
1137;DHT22;557;48.466;7.950;2022-07-29T04:22:14;19.40;50.00
1137;DHT22;557;48.466;7.950;2022-07-29T04:24:59;19.40;40.40
1137;DHT22;557;48.466;7.950;2022-07-29T04:27:45;19.40;43.80
1137;DHT22;557;48.466;7.950;2022-07-29T04:30:39;19.40;46.20
1137;DHT22;557;48.466;7.950;2022-07-29T04:33:24;19.40;42.90
1137;DHT22;557;48.466;7.950;2022-07-29T04:36:10;19.40;44.90
1137;DHT22;557;48.466;7.950;2022-07-29T04:38:56;19.40;48.70
1137;DHT22;557;48.466;7.950;2022-07-29T04:41:42;19.30;53.20
1137;DHT22;557;48.466;7.950;2022-07-29T04:44:28;19.30;58.50
1137;DHT22;557;48.466;7.950;2022-07-29T04:47:15;19.20;70.80
1137;DHT22;557;48.466;7.950;2022-07-29T04:50:00;19.10;71.50
1137;DHT22;557;48.466;7.950;2022-07-29T04:52:46;19.10;75.60
1137;DHT22;557;48.466;7.950;2022-07-29T04:55:32;19.10;83.00
1137;DHT22;557;48.466;7.950;2022-07-29T04:58:17;19.00;93.60
1137;DHT22;557;48.466;7.950;2022-07-29T05:01:03;18.90;98.00
1137;DHT22;557;48.466;7.950;2022-07-29T05:03:51;18.90;98.10
1137;DHT22;557;48.466;7.950;2022-07-29T05:06:37;18.90;99.90
1137;DHT22;557;48.466;7.950;2022-07-29T05:09:23;18.90;99.90
1137;DHT22;557;48.466;7.950;2022-07-29T05:12:08;19.00;98.70
1137;DHT22;557;48.466;7.950;2022-07-29T05:14:54;19.10;91.80
1137;DHT22;557;48.466;7.950;2022-07-29T05:17:40;19.20;91.00
1137;DHT22;557;48.466;7.950;2022-07-29T05:20:27;19.20;75.50
1137;DHT22;557;48.466;7.950;2022-07-29T05:23:13;19.30;73.70
1137;DHT22;557;48.466;7.950;2022-07-29T05:25:59;19.30;64.40
1137;DHT22;557;48.466;7.950;2022-07-29T05:28:44;19.20;76.80
1137;DHT22;557;48.466;7.950;2022-07-29T05:31:30;19.20;79.60
1137;DHT22;557;48.466;7.950;2022-07-29T05:34:17;19.10;81.90
1137;DHT22;557;48.466;7.950;2022-07-29T05:37:05;19.20;79.80
1137;DHT22;557;48.466;7.950;2022-07-29T05:39:50;19.20;75.60
1137;DHT22;557;48.466;7.950;2022-07-29T05:42:36;19.30;75.20
1137;DHT22;557;48.466;7.950;2022-07-29T05:45:21;19.40;53.50
1137;DHT22;557;48.466;7.950;2022-07-29T05:48:07;19.50;41.60
1137;DHT22;557;48.466;7.950;2022-07-29T05:50:53;19.50;35.60
1137;DHT22;557;48.466;7.950;2022-07-29T05:53:41;19.70;48.60
1137;DHT22;557;48.466;7.950;2022-07-29T05:56:27;19.90;20.60
1137;DHT22;557;48.466;7.950;2022-07-29T05:59:13;20.30;4.00
1137;DHT22;557;48.466;7.950;2022-07-29T06:01:58;20.50;1.00
1137;DHT22;557;48.466;7.950;2022-07-29T06:04:44;20.40;1.00
1137;DHT22;557;48.466;7.950;2022-07-29T06:07:30;20.50;1.00
1137;DHT22;557;48.466;7.950;2022-07-29T06:10:18;20.60;1.00
1137;DHT22;557;48.466;7.950;2022-07-29T06:13:04;20.70;1.00
1137;DHT22;557;48.466;7.950;2022-07-29T06:15:50;20.70;1.00
1137;DHT22;557;48.466;7.950;2022-07-29T06:18:36;20.90;1.00
1137;DHT22;557;48.466;7.950;2022-07-29T06:21:21;21.10;1.00
1137;DHT22;557;48.466;7.950;2022-07-29T06:24:07;21.20;1.00
1137;DHT22;557;48.466;7.950;2022-07-29T06:26:54;21.20;1.00
1137;DHT22;557;48.466;7.950;2022-07-29T06:29:40;21.20;1.00
1137;DHT22;557;48.466;7.950;2022-07-29T06:32:26;21.20;1.00
1137;DHT22;557;48.466;7.950;2022-07-29T06:35:11;21.40;1.00
1137;DHT22;557;48.466;7.950;2022-07-29T06:37:57;21.50;1.00
1137;DHT22;557;48.466;7.950;2022-07-29T06:40:43;21.40;99.90
1137;DHT22;557;48.466;7.950;2022-07-29T06:43:49;21.40;99.90
1137;DHT22;557;48.466;7.950;2022-07-29T06:46:35;21.50;99.90
1137;DHT22;557;48.466;7.950;2022-07-29T06:49:21;21.70;99.90
1137;DHT22;557;48.466;7.950;2022-07-29T06:52:08;21.70;99.90
1137;DHT22;557;48.466;7.950;2022-07-29T06:54:53;21.70;99.90
1137;DHT22;557;48.466;7.950;2022-07-29T06:57:39;21.70;99.90
1137;DHT22;557;48.466;7.950;2022-07-29T07:00:26;21.70;99.90
1137;DHT22;557;48.466;7.950;2022-07-29T07:03:12;22.00;43.80
1137;DHT22;557;48.466;7.950;2022-07-29T07:05:57;22.20;1.00
1137;DHT22;557;48.466;7.950;2022-07-29T07:08:43;22.40;99.90
1137;DHT22;557;48.466;7.950;2022-07-29T07:11:29;22.30;1.00
1137;DHT22;557;48.466;7.950;2022-07-29T07:14:15;22.10;99.90
1137;DHT22;557;48.466;7.950;2022-07-29T07:17:02;22.00;99.90
1137;DHT22;557;48.466;7.950;2022-07-29T07:19:48;21.90;1.00
1137;DHT22;557;48.466;7.950;2022-07-29T07:22:33;22.10;99.90
1137;DHT22;557;48.466;7.950;2022-07-29T07:25:19;22.10;1.00
1137;DHT22;557;48.466;7.950;2022-07-29T07:28:06;22.00;99.90
1137;DHT22;557;48.466;7.950;2022-07-29T07:30:51;22.00;99.90
1137;DHT22;557;48.466;7.950;2022-07-29T07:33:39;22.10;99.90
1137;DHT22;557;48.466;7.950;2022-07-29T07:36:25;22.30;1.00
1137;DHT22;557;48.466;7.950;2022-07-29T07:39:11;22.40;99.90
1137;DHT22;557;48.466;7.950;2022-07-29T07:42:03;22.50;1.00
1137;DHT22;557;48.466;7.950;2022-07-29T07:44:48;22.70;1.00
1137;DHT22;557;48.466;7.950;2022-07-29T07:47:34;22.80;1.00
1137;DHT22;557;48.466;7.950;2022-07-29T07:50:21;23.00;1.00
1137;DHT22;557;48.466;7.950;2022-07-29T07:53:07;23.10;99.90
1137;DHT22;557;48.466;7.950;2022-07-29T07:55:53;23.50;99.90
1137;DHT22;557;48.466;7.950;2022-07-29T07:58:38;23.80;99.90
1137;DHT22;557;48.466;7.950;2022-07-29T08:01:24;23.80;1.00
1137;DHT22;557;48.466;7.950;2022-07-29T08:04:10;23.90;1.00
1137;DHT22;557;48.466;7.950;2022-07-29T08:06:58;24.00;99.90
1137;DHT22;557;48.466;7.950;2022-07-29T08:09:44;23.90;99.90
1137;DHT22;557;48.466;7.950;2022-07-29T08:12:29;23.80;99.90
1137;DHT22;557;48.466;7.950;2022-07-29T08:15:15;24.00;99.90
1137;DHT22;557;48.466;7.950;2022-07-29T08:18:01;24.00;99.90
1137;DHT22;557;48.466;7.950;2022-07-29T08:20:47;24.00;99.90
1137;DHT22;557;48.466;7.950;2022-07-29T08:23:33;24.10;99.90
1137;DHT22;557;48.466;7.950;2022-07-29T08:26:22;24.10;99.90
1137;DHT22;557;48.466;7.950;2022-07-29T08:29:09;24.30;99.90
1137;DHT22;557;48.466;7.950;2022-07-29T08:31:54;24.60;99.90
1137;DHT22;557;48.466;7.950;2022-07-29T08:34:40;24.90;99.90
1137;DHT22;557;48.466;7.950;2022-07-29T08:37:25;25.20;99.90
1137;DHT22;557;48.466;7.950;2022-07-29T08:40:12;25.20;99.90
1137;DHT22;557;48.466;7.950;2022-07-29T08:43:03;25.20;99.90
1137;DHT22;557;48.466;7.950;2022-07-29T08:45:50;25.30;99.90
1137;DHT22;557;48.466;7.950;2022-07-29T08:48:37;25.40;99.90
1137;DHT22;557;48.466;7.950;2022-07-29T08:51:25;25.60;99.90
1137;DHT22;557;48.466;7.950;2022-07-29T08:54:16;25.40;99.90
1137;DHT22;557;48.466;7.950;2022-07-29T08:57:04;25.40;99.90
1137;DHT22;557;48.466;7.950;2022-07-29T08:59:51;25.60;99.90
1137;DHT22;557;48.466;7.950;2022-07-29T09:02:40;25.50;99.90
1137;DHT22;557;48.466;7.950;2022-07-29T09:05:28;25.20;99.90
1137;DHT22;557;48.466;7.950;2022-07-29T09:08:14;25.20;99.90
1137;DHT22;557;48.466;7.950;2022-07-29T09:11:01;25.40;99.90
1137;DHT22;557;48.466;7.950;2022-07-29T09:13:48;25.30;99.90
1137;DHT22;557;48.466;7.950;2022-07-29T09:16:48;25.10;99.90
1137;DHT22;557;48.466;7.950;2022-07-29T09:19:35;25.30;98.50
1137;DHT22;557;48.466;7.950;2022-07-29T09:22:29;25.30;99.50
1137;DHT22;557;48.466;7.950;2022-07-29T09:25:32;25.40;99.90
1137;DHT22;557;48.466;7.950;2022-07-29T09:28:17;25.50;93.60
1137;DHT22;557;48.466;7.950;2022-07-29T09:31:04;25.40;85.40
1137;DHT22;557;48.466;7.950;2022-07-29T09:33:52;25.40;82.40
1137;DHT22;557;48.466;7.950;2022-07-29T09:36:41;25.40;74.00
1137;DHT22;557;48.466;7.950;2022-07-29T09:39:29;25.80;74.80
1137;DHT22;557;48.466;7.950;2022-07-29T09:42:27;26.30;65.70
1137;DHT22;557;48.466;7.950;2022-07-29T09:45:26;27.10;83.60
1137;DHT22;557;48.466;7.950;2022-07-29T09:48:18;27.80;68.40
1137;DHT22;557;48.466;7.950;2022-07-29T09:51:04;27.90;34.00
1137;DHT22;557;48.466;7.950;2022-07-29T09:53:51;27.60;27.30
1137;DHT22;557;48.466;7.950;2022-07-29T09:56:41;27.50;22.70
1137;DHT22;557;48.466;7.950;2022-07-29T09:59:27;27.80;23.40
1137;DHT22;557;48.466;7.950;2022-07-29T10:02:13;28.20;24.90
1137;DHT22;557;48.466;7.950;2022-07-29T10:05:01;28.10;13.20
1137;DHT22;557;48.466;7.950;2022-07-29T10:07:48;28.20;13.80
1137;DHT22;557;48.466;7.950;2022-07-29T10:10:34;28.50;13.30
1137;DHT22;557;48.466;7.950;2022-07-29T10:13:21;28.50;7.70
1137;DHT22;557;48.466;7.950;2022-07-29T10:16:07;28.40;6.40
1137;DHT22;557;48.466;7.950;2022-07-29T10:18:53;28.20;3.10
1137;DHT22;557;48.466;7.950;2022-07-29T10:21:41;27.60;1.00
1137;DHT22;557;48.466;7.950;2022-07-29T10:24:30;27.20;1.00
1137;DHT22;557;48.466;7.950;2022-07-29T10:27:16;27.20;1.00
1137;DHT22;557;48.466;7.950;2022-07-29T10:30:02;27.50;1.00
1137;DHT22;557;48.466;7.950;2022-07-29T10:32:58;27.50;1.00
1137;DHT22;557;48.466;7.950;2022-07-29T10:36:14;28.10;1.00
1137;DHT22;557;48.466;7.950;2022-07-29T10:39:13;29.30;1.00
1137;DHT22;557;48.466;7.950;2022-07-29T10:42:14;30.30;1.00
1137;DHT22;557;48.466;7.950;2022-07-29T10:45:03;30.10;1.00
1137;DHT22;557;48.466;7.950;2022-07-29T10:48:02;30.40;1.00
1137;DHT22;557;48.466;7.950;2022-07-29T10:50:52;30.60;1.00
1137;DHT22;557;48.466;7.950;2022-07-29T10:53:49;30.60;1.00
1137;DHT22;557;48.466;7.950;2022-07-29T10:56:36;30.00;1.00
1137;DHT22;557;48.466;7.950;2022-07-29T10:59:25;29.90;1.00
1137;DHT22;557;48.466;7.950;2022-07-29T11:02:43;29.30;1.00
1137;DHT22;557;48.466;7.950;2022-07-29T11:05:28;29.30;1.00
1137;DHT22;557;48.466;7.950;2022-07-29T11:08:23;28.70;1.00
1137;DHT22;557;48.466;7.950;2022-07-29T11:11:38;28.30;1.00
1137;DHT22;557;48.466;7.950;2022-07-29T11:14:55;27.80;1.00
1137;DHT22;557;48.466;7.950;2022-07-29T11:18:03;27.30;1.00
1137;DHT22;557;48.466;7.950;2022-07-29T11:20:50;27.40;1.00
1137;DHT22;557;48.466;7.950;2022-07-29T11:23:38;27.50;1.00
1137;DHT22;557;48.466;7.950;2022-07-29T11:26:27;27.70;1.00
1137;DHT22;557;48.466;7.950;2022-07-29T11:29:19;27.40;1.00
1137;DHT22;557;48.466;7.950;2022-07-29T11:32:11;27.30;1.00
1137;DHT22;557;48.466;7.950;2022-07-29T11:35:14;27.50;1.00
1137;DHT22;557;48.466;7.950;2022-07-29T11:38:23;27.80;1.00
1137;DHT22;557;48.466;7.950;2022-07-29T11:41:22;27.70;1.00
1137;DHT22;557;48.466;7.950;2022-07-29T11:44:08;27.90;1.00
1137;DHT22;557;48.466;7.950;2022-07-29T11:46:55;27.80;1.00
1137;DHT22;557;48.466;7.950;2022-07-29T11:49:44;27.40;1.00
1137;DHT22;557;48.466;7.950;2022-07-29T11:52:33;27.30;1.00
1137;DHT22;557;48.466;7.950;2022-07-29T11:55:23;27.20;1.00
1137;DHT22;557;48.466;7.950;2022-07-29T11:58:09;27.30;1.00
1137;DHT22;557;48.466;7.950;2022-07-29T12:00:57;27.10;1.00
1137;DHT22;557;48.466;7.950;2022-07-29T12:03:44;27.20;1.00
1137;DHT22;557;48.466;7.950;2022-07-29T12:06:30;27.10;1.00
1137;DHT22;557;48.466;7.950;2022-07-29T12:09:15;27.20;1.00
1137;DHT22;557;48.466;7.950;2022-07-29T12:12:01;27.20;1.00
1137;DHT22;557;48.466;7.950;2022-07-29T12:14:47;27.00;1.00
1137;DHT22;557;48.466;7.950;2022-07-29T12:17:34;27.00;1.00
1137;DHT22;557;48.466;7.950;2022-07-29T12:20:27;26.90;1.00
1137;DHT22;557;48.466;7.950;2022-07-29T12:23:14;26.90;1.00
1137;DHT22;557;48.466;7.950;2022-07-29T12:26:03;26.90;1.00
1137;DHT22;557;48.466;7.950;2022-07-29T12:28:48;26.80;1.00
1137;DHT22;557;48.466;7.950;2022-07-29T12:31:34;27.00;1.00
1137;DHT22;557;48.466;7.950;2022-07-29T12:34:22;27.00;1.00
1137;DHT22;557;48.466;7.950;2022-07-29T12:37:10;27.10;1.00
1137;DHT22;557;48.466;7.950;2022-07-29T12:39:56;27.20;1.00
1137;DHT22;557;48.466;7.950;2022-07-29T12:43:06;27.10;1.00
1137;DHT22;557;48.466;7.950;2022-07-29T12:45:54;27.10;1.00
1137;DHT22;557;48.466;7.950;2022-07-29T12:48:42;27.20;1.00
1137;DHT22;557;48.466;7.950;2022-07-29T12:51:28;27.20;1.00
1137;DHT22;557;48.466;7.950;2022-07-29T12:54:16;27.30;1.00
1137;DHT22;557;48.466;7.950;2022-07-29T12:57:02;27.40;1.00
1137;DHT22;557;48.466;7.950;2022-07-29T12:59:59;27.40;1.00
1137;DHT22;557;48.466;7.950;2022-07-29T13:02:54;27.70;1.00
1137;DHT22;557;48.466;7.950;2022-07-29T13:05:43;27.70;1.00
1137;DHT22;557;48.466;7.950;2022-07-29T13:08:29;27.70;1.00
1137;DHT22;557;48.466;7.950;2022-07-29T13:11:29;27.70;1.00
1137;DHT22;557;48.466;7.950;2022-07-29T13:14:30;27.60;1.00
1137;DHT22;557;48.466;7.950;2022-07-29T13:17:17;27.50;1.00
1137;DHT22;557;48.466;7.950;2022-07-29T13:20:06;27.60;1.00
1137;DHT22;557;48.466;7.950;2022-07-29T13:22:56;27.50;1.00
1137;DHT22;557;48.466;7.950;2022-07-29T13:25:43;27.50;1.00
1137;DHT22;557;48.466;7.950;2022-07-29T13:28:32;27.40;1.00
1137;DHT22;557;48.466;7.950;2022-07-29T13:31:17;27.30;1.00
1137;DHT22;557;48.466;7.950;2022-07-29T13:34:03;27.40;1.00
1137;DHT22;557;48.466;7.950;2022-07-29T13:36:49;27.60;1.00
1137;DHT22;557;48.466;7.950;2022-07-29T13:39:35;27.60;1.00
1137;DHT22;557;48.466;7.950;2022-07-29T13:42:21;27.50;1.00
1137;DHT22;557;48.466;7.950;2022-07-29T13:45:09;27.40;1.00
1137;DHT22;557;48.466;7.950;2022-07-29T13:47:55;27.40;1.00
1137;DHT22;557;48.466;7.950;2022-07-29T13:50:41;27.40;1.00
1137;DHT22;557;48.466;7.950;2022-07-29T13:53:27;27.40;1.00
1137;DHT22;557;48.466;7.950;2022-07-29T13:56:12;27.40;1.00
1137;DHT22;557;48.466;7.950;2022-07-29T13:58:58;27.40;1.00
1137;DHT22;557;48.466;7.950;2022-07-29T14:01:46;27.40;1.00
1137;DHT22;557;48.466;7.950;2022-07-29T14:04:32;27.50;1.00
1137;DHT22;557;48.466;7.950;2022-07-29T14:07:18;27.50;1.00
1137;DHT22;557;48.466;7.950;2022-07-29T14:10:04;27.60;1.00
1137;DHT22;557;48.466;7.950;2022-07-29T14:12:50;27.40;1.00
1137;DHT22;557;48.466;7.950;2022-07-29T14:15:35;27.40;1.00
1137;DHT22;557;48.466;7.950;2022-07-29T14:18:23;27.80;1.00
1137;DHT22;557;48.466;7.950;2022-07-29T14:21:08;27.90;1.00
1137;DHT22;557;48.466;7.950;2022-07-29T14:23:54;28.10;1.00
1137;DHT22;557;48.466;7.950;2022-07-29T14:26:40;28.00;1.00
1137;DHT22;557;48.466;7.950;2022-07-29T14:29:25;28.00;1.00
1137;DHT22;557;48.466;7.950;2022-07-29T14:32:11;28.00;1.00
1137;DHT22;557;48.466;7.950;2022-07-29T14:35:00;28.10;1.00
1137;DHT22;557;48.466;7.950;2022-07-29T14:37:46;28.20;1.00
1137;DHT22;557;48.466;7.950;2022-07-29T14:40:31;28.30;1.00
1137;DHT22;557;48.466;7.950;2022-07-29T14:43:17;28.10;1.00
1137;DHT22;557;48.466;7.950;2022-07-29T14:46:03;28.00;1.00
1137;DHT22;557;48.466;7.950;2022-07-29T14:48:49;28.00;1.00
1137;DHT22;557;48.466;7.950;2022-07-29T14:51:36;27.80;1.00
1137;DHT22;557;48.466;7.950;2022-07-29T14:54:22;27.80;1.00
1137;DHT22;557;48.466;7.950;2022-07-29T14:57:07;28.00;1.00
1137;DHT22;557;48.466;7.950;2022-07-29T14:59:53;28.00;1.00
1137;DHT22;557;48.466;7.950;2022-07-29T15:02:39;28.30;1.00
1137;DHT22;557;48.466;7.950;2022-07-29T15:05:25;28.50;1.00
1137;DHT22;557;48.466;7.950;2022-07-29T15:08:12;28.30;1.00
1137;DHT22;557;48.466;7.950;2022-07-29T15:10:58;28.30;1.00
1137;DHT22;557;48.466;7.950;2022-07-29T15:13:44;28.10;1.00
1137;DHT22;557;48.466;7.950;2022-07-29T15:16:30;28.10;1.00
1137;DHT22;557;48.466;7.950;2022-07-29T15:19:16;28.10;1.00
1137;DHT22;557;48.466;7.950;2022-07-29T15:22:02;28.00;1.00
1137;DHT22;557;48.466;7.950;2022-07-29T15:24:50;27.90;1.00
1137;DHT22;557;48.466;7.950;2022-07-29T15:27:36;27.90;1.00
1137;DHT22;557;48.466;7.950;2022-07-29T15:30:22;27.80;1.00
1137;DHT22;557;48.466;7.950;2022-07-29T15:33:08;27.80;1.00
1137;DHT22;557;48.466;7.950;2022-07-29T15:35:56;27.80;1.00
1137;DHT22;557;48.466;7.950;2022-07-29T15:38:41;27.90;1.00
1137;DHT22;557;48.466;7.950;2022-07-29T15:41:30;27.70;1.00
1137;DHT22;557;48.466;7.950;2022-07-29T15:44:15;27.60;1.00
1137;DHT22;557;48.466;7.950;2022-07-29T15:47:01;27.60;1.00
1137;DHT22;557;48.466;7.950;2022-07-29T15:49:50;27.80;1.00
1137;DHT22;557;48.466;7.950;2022-07-29T15:52:36;27.70;1.00
1137;DHT22;557;48.466;7.950;2022-07-29T15:55:21;27.70;1.00
1137;DHT22;557;48.466;7.950;2022-07-29T15:58:09;27.90;1.00
1137;DHT22;557;48.466;7.950;2022-07-29T16:00:55;27.90;1.00
1137;DHT22;557;48.466;7.950;2022-07-29T16:03:40;27.80;1.00
1137;DHT22;557;48.466;7.950;2022-07-29T16:06:26;27.90;1.00
1137;DHT22;557;48.466;7.950;2022-07-29T16:09:12;27.70;1.00
1137;DHT22;557;48.466;7.950;2022-07-29T16:11:58;27.70;1.00
1137;DHT22;557;48.466;7.950;2022-07-29T16:14:45;27.50;1.00
1137;DHT22;557;48.466;7.950;2022-07-29T16:17:32;28.10;1.00
1137;DHT22;557;48.466;7.950;2022-07-29T16:20:18;28.60;1.00
1137;DHT22;557;48.466;7.950;2022-07-29T16:23:04;29.10;1.00
1137;DHT22;557;48.466;7.950;2022-07-29T16:25:51;29.50;1.00
1137;DHT22;557;48.466;7.950;2022-07-29T16:28:36;29.40;1.00
1137;DHT22;557;48.466;7.950;2022-07-29T16:31:24;29.40;1.00
1137;DHT22;557;48.466;7.950;2022-07-29T16:34:10;29.60;1.00
1137;DHT22;557;48.466;7.950;2022-07-29T16:36:56;29.60;1.00
1137;DHT22;557;48.466;7.950;2022-07-29T16:39:41;29.70;1.00
1137;DHT22;557;48.466;7.950;2022-07-29T16:42:27;29.50;1.00
1137;DHT22;557;48.466;7.950;2022-07-29T16:45:13;29.20;1.00
1137;DHT22;557;48.466;7.950;2022-07-29T16:48:01;29.00;1.00
1137;DHT22;557;48.466;7.950;2022-07-29T16:50:47;28.80;1.00
1137;DHT22;557;48.466;7.950;2022-07-29T16:53:32;28.70;1.00
1137;DHT22;557;48.466;7.950;2022-07-29T16:56:18;28.60;1.00
1137;DHT22;557;48.466;7.950;2022-07-29T16:59:04;28.60;1.00
1137;DHT22;557;48.466;7.950;2022-07-29T17:01:50;28.60;1.00
1137;DHT22;557;48.466;7.950;2022-07-29T17:04:37;28.60;1.00
1137;DHT22;557;48.466;7.950;2022-07-29T17:07:22;28.50;1.00
1137;DHT22;557;48.466;7.950;2022-07-29T17:10:09;28.40;1.00
1137;DHT22;557;48.466;7.950;2022-07-29T17:12:55;28.00;1.00
1137;DHT22;557;48.466;7.950;2022-07-29T17:15:40;27.60;1.00
1137;DHT22;557;48.466;7.950;2022-07-29T17:18:27;27.50;1.00
1137;DHT22;557;48.466;7.950;2022-07-29T17:21:15;27.40;1.00
1137;DHT22;557;48.466;7.950;2022-07-29T17:24:01;27.20;1.00
1137;DHT22;557;48.466;7.950;2022-07-29T17:26:46;26.80;1.00
1137;DHT22;557;48.466;7.950;2022-07-29T17:29:32;26.60;1.00
1137;DHT22;557;48.466;7.950;2022-07-29T17:32:19;26.40;1.00
1137;DHT22;557;48.466;7.950;2022-07-29T17:35:06;26.20;1.00
1137;DHT22;557;48.466;7.950;2022-07-29T17:38:14;26.10;1.00
1137;DHT22;557;48.466;7.950;2022-07-29T17:40:59;26.10;1.00
1137;DHT22;557;48.466;7.950;2022-07-29T17:43:45;26.00;1.00
1137;DHT22;557;48.466;7.950;2022-07-29T17:46:31;25.90;1.00
1137;DHT22;557;48.466;7.950;2022-07-29T17:49:17;25.90;1.00
1137;DHT22;557;48.466;7.950;2022-07-29T17:52:02;25.80;1.00
1137;DHT22;557;48.466;7.950;2022-07-29T17:54:50;25.80;1.00
1137;DHT22;557;48.466;7.950;2022-07-29T17:57:35;25.80;1.00
1137;DHT22;557;48.466;7.950;2022-07-29T18:00:21;25.90;1.00
1137;DHT22;557;48.466;7.950;2022-07-29T18:03:08;25.90;1.00
1137;DHT22;557;48.466;7.950;2022-07-29T18:05:54;25.90;1.00
1137;DHT22;557;48.466;7.950;2022-07-29T18:08:40;25.80;1.00
1137;DHT22;557;48.466;7.950;2022-07-29T18:11:27;25.80;1.00
1137;DHT22;557;48.466;7.950;2022-07-29T18:14:14;25.70;1.00
1137;DHT22;557;48.466;7.950;2022-07-29T18:17:00;25.70;1.00
1137;DHT22;557;48.466;7.950;2022-07-29T18:19:46;25.60;1.00
1137;DHT22;557;48.466;7.950;2022-07-29T18:22:32;25.50;1.00
1137;DHT22;557;48.466;7.950;2022-07-29T18:25:18;25.40;1.00
1137;DHT22;557;48.466;7.950;2022-07-29T18:28:05;25.40;1.00
1137;DHT22;557;48.466;7.950;2022-07-29T18:30:51;25.30;1.00
1137;DHT22;557;48.466;7.950;2022-07-29T18:33:37;25.30;1.00
1137;DHT22;557;48.466;7.950;2022-07-29T18:36:23;25.20;1.00
1137;DHT22;557;48.466;7.950;2022-07-29T18:39:09;25.10;1.00
1137;DHT22;557;48.466;7.950;2022-07-29T18:41:55;25.10;1.00
1137;DHT22;557;48.466;7.950;2022-07-29T18:44:42;25.10;1.00
1137;DHT22;557;48.466;7.950;2022-07-29T18:47:27;25.00;1.00